Latest Coastal Weather Observations for Kiama

IDN60701

Issued at 8:51 pm EST Wednesday 29 June 2016 (issued every 10 minutes, with the page automatically refreshed every 10 minutes)

About coastal observations | Map of coastal stations | Coastal observations for NSW | Marine services | Other Formats
Station Details ID: 068242 Name: KIAMA (BOMBO HEADLAND) Lat: -34.65 Lon: 150.86 Height: 15.5 m
Data from the previous 72 hours. | See also: Recent months at Kiama
Date/Time
EST
Temp
°C
Wind Pressure Rain since
9am
mm
Weather Cloud Vis
km
Sea
Height
m
Swell
Dir  Spd
kts
Gust
kts
hPa Trend Height
m
Period
s
Dir
29/08:30pm 10.9 WNW 7 7 - - 0.0 - - - - - - -
29/08:00pm 11.5 WNW 7 9 - - 0.0 - - - - - - -
29/07:30pm 11.9 WNW 6 7 - - 0.0 - - - - - - -
29/07:00pm 11.8 W 6 7 - - 0.0 - - - - - - -
29/06:30pm 12.1 W 6 7 - - 0.0 - - - - - - -
29/06:00pm 12.7 W 6 6 - - 0.0 - - - - - - -
29/05:30pm 13.4 WSW 3 4 - - 0.0 - - - - - - -
29/05:00pm 14.1 SW 2 3 - - 0.0 - - - - - - -
29/04:30pm 15.9 SSE 4 7 - - 0.0 - - - - - - -
29/04:00pm 16.1 SSE 5 8 - - 0.0 - - - - - - -
29/03:30pm 16.3 SSE 7 9 - - 0.0 - - - - - - -
29/03:00pm 16.4 SSE 9 11 - - 0.0 - - - - - - -
29/02:30pm 16.5 S 8 11 - - 0.0 - - - - - - -
29/02:00pm 16.7 S 8 12 - - 0.0 - - - - - - -
29/01:30pm 16.5 S 9 13 - - 0.0 - - - - - - -
29/01:00pm 16.3 SSE 10 12 - - 0.0 - - - - - - -
29/12:30pm 16.6 S 10 13 - - 0.0 - - - - - - -
29/12:00pm 16.6 S 9 15 - - 0.0 - - - - - - -
29/11:30am 16.4 S 11 13 - - 0.0 - - - - - - -
29/11:00am 17.0 ENE 1 4 - - 0.0 - - - - - - -
29/10:30am 16.6 CALM 0 0 - - 0.0 - - - - - - -
29/10:00am 16.7 WNW 1 3 - - 0.0 - - - - - - -
29/09:30am 14.8 WNW 5 8 - - 0.0 - - - - - - -
29/09:00am 13.7 WNW 5 7 - - 0.0 - - - - - - -
29/08:30am 12.5 WNW 3 5 - - 0.0 - - - - - - -
29/08:00am 11.3 W 4 6 - - 0.0 - - - - - - -
29/07:30am 10.6 WNW 5 7 - - 0.0 - - - - - - -
29/07:00am 10.3 WNW 6 9 - - 0.0 - - - - - - -
29/06:30am 10.2 WNW 7 10 - - 0.0 - - - - - - -
29/06:00am 10.0 W 8 10 - - 0.0 - - - - - - -
29/05:30am 10.1 WNW 7 10 - - 0.0 - - - - - - -
29/05:00am 9.9 W 8 11 - - 0.0 - - - - - - -
29/04:30am 10.1 WNW 7 10 - - 0.0 - - - - - - -
29/04:00am 10.0 W 8 10 - - 0.0 - - - - - - -
29/03:30am 10.1 WNW 7 10 - - 0.0 - - - - - - -
29/03:00am 9.9 WNW 7 10 - - 0.0 - - - - - - -
29/02:30am 10.1 WNW 7 11 - - 0.0 - - - - - - -
29/02:00am 10.0 WNW 8 11 - - 0.0 - - - - - - -
29/01:30am 10.1 WNW 9 13 - - 0.0 - - - - - - -
29/01:00am 10.0 WNW 7 11 - - 0.0 - - - - - - -
29/12:30am 9.9 WNW 7 10 - - 0.0 - - - - - - -
29/12:00am 10.3 WNW 8 10 - - 0.0 - - - - - - -
 
Date/Time
EST
Temp
°C
Wind Pressure Rain since
9am
mm
Weather Cloud Vis
km
Sea
Height
m
Swell
Dir  Spd
kts
Gust
kts
hPa Trend Height
m
Period
s
Dir
28/11:30pm 10.3 WNW 8 12 - - 0.0 - - - - - - -
28/11:00pm 10.4 W 9 12 - - 0.0 - - - - - - -
28/10:30pm 10.2 W 8 11 - - 0.0 - - - - - - -
28/10:00pm 10.4 W 8 11 - - 0.0 - - - - - - -
28/09:30pm 10.5 W 8 12 - - 0.0 - - - - - - -
28/09:00pm 10.9 W 8 13 - - 0.0 - - - - - - -
28/08:30pm 10.7 W 7 10 - - 0.0 - - - - - - -
28/08:00pm 10.8 WNW 5 9 - - 0.0 - - - - - - -
28/07:30pm 11.3 WNW 5 7 - - 0.0 - - - - - - -
28/07:00pm 10.0 W 5 7 - - 0.0 - - - - - - -
28/06:30pm 11.2 WNW 5 7 - - 0.0 - - - - - - -
28/06:00pm 10.7 W 5 7 - - 0.0 - - - - - - -
28/05:30pm 11.6 W 3 4 - - 0.0 - - - - - - -
28/05:00pm 12.7 SW 2 4 - - 0.0 - - - - - - -
28/04:30pm 14.6 WSW 4 8 - - 0.0 - - - - - - -
28/04:00pm 15.2 WSW 5 9 - - 0.0 - - - - - - -
28/03:30pm 15.4 SW 7 10 - - 0.0 - - - - - - -
28/03:00pm 15.4 SW 9 15 - - 0.0 - - - - - - -
28/02:30pm 15.4 SW 8 16 - - 0.0 - - - - - - -
28/02:00pm 15.4 WSW 8 13 - - 0.0 - - - - - - -
28/01:30pm 15.2 WSW 7 11 - - 0.0 - - - - - - -
28/01:00pm 15.0 SSW 10 17 - - 0.0 - - - - - - -
28/12:30pm 14.5 SSW 11 17 - - 0.0 - - - - - - -
28/12:00pm 14.4 SW 12 17 - - 0.0 - - - - - - -
28/11:30am 14.4 SW 12 19 - - 0.0 - - - - - - -
28/11:00am 14.1 WSW 9 16 - - 0.0 - - - - - - -
28/10:30am 14.0 SW 12 18 - - 0.0 - - - - - - -
28/10:00am 13.7 WSW 9 16 - - 0.0 - - - - - - -
28/09:30am 13.5 WSW 12 19 - - 0.0 - - - - - - -
28/09:00am 13.0 SW 11 17 - - 3.4 - - - - - - -
28/08:30am 10.3 W 10 14 - - 3.4 - - - - - - -
28/08:00am 9.5 W 12 17 - - 3.4 - - - - - - -
28/07:30am 8.8 W 10 15 - - 3.4 - - - - - - -
28/07:00am 8.5 W 10 15 - - 3.4 - - - - - - -
28/06:30am 8.7 W 11 13 - - 3.4 - - - - - - -
28/06:00am 8.9 W 9 14 - - 3.4 - - - - - - -
28/05:30am 11.7 SW 12 18 - - 3.4 - - - - - - -
28/05:00am 11.9 SW 11 17 - - 3.4 - - - - - - -
28/04:30am 12.4 SW 12 18 - - 3.4 - - - - - - -
28/04:00am 12.4 SW 13 21 - - 3.4 - - - - - - -
28/03:30am 12.5 SW 13 20 - - 3.4 - - - - - - -
28/03:00am 12.6 SW 13 19 - - 3.4 - - - - - - -
28/02:30am 12.4 SW 14 25 - - 3.4 - - - - - - -
28/02:00am 12.3 SW 14 22 - - 3.4 - - - - - - -
28/01:30am 12.3 SW 12 20 - - 3.4 - - - - - - -
28/01:00am 12.2 WSW 12 16 - - 3.4 - - - - - - -
28/12:30am 12.4 WSW 13 21 - - 3.4 - - - - - - -
28/12:00am 12.6 SW 14 20 - - 3.4 - - - - - - -
 
Date/Time
EST
Temp
°C
Wind Pressure Rain since
9am
mm
Weather Cloud Vis
km
Sea
Height
m
Swell
Dir  Spd
kts
Gust
kts
hPa Trend Height
m
Period
s
Dir
27/11:30pm 12.3 SW 12 20 - - 3.4 - - - - - - -
27/11:00pm 12.0 WSW 14 21 - - 3.4 - - - - - - -
27/10:30pm 12.1 SW 13 19 - - 3.4 - - - - - - -
27/10:00pm 12.0 SW 13 23 - - 3.4 - - - - - - -
27/09:30pm 12.0 SW 15 26 - - 3.4 - - - - - - -
27/09:27pm 12.1 SW 15 26 - - 3.4 - - - - - - -
27/09:00pm 11.8 WSW 14 21 - - 3.4 - - - - - - -
27/08:30pm 11.8 SW 15 23 - - 3.4 - - - - - - -
27/08:00pm 11.9 SW 12 23 - - 3.4 - - - - - - -
27/07:30pm 9.8 W 9 22 - - 3.4 - - - - - - -
27/07:00pm 10.3 WSW 9 13 - - 2.8 - - - - - - -
27/06:30pm 10.2 WSW 12 17 - - 2.2 - - - - - - -
27/06:00pm 10.4 SW 11 18 - - 1.6 Rain - - - - - -
27/05:30pm 11.1 SW 14 19 - - 0.4 - - - - - - -
27/05:00pm 10.8 WSW 9 16 - - 0.2 - - - - - - -
27/04:30pm 11.1 SW 10 17 - - 0.2 - - - - - - -
27/04:00pm 11.8 SW 10 17 - - 0.2 - - - - - - -
27/03:30pm 11.1 W 4 7 - - 0.2 - - - - - - -
27/03:00pm 11.0 W 3 4 - - 0.2 Recent precip. - - - - - -
27/02:30pm 11.5 WSW 5 8 - - 0.0 - - - - - - -
27/02:00pm 11.6 WSW 5 9 - - 0.0 - - - - - - -
27/01:30pm 11.9 SW 6 9 - - 0.0 - - - - - - -
27/01:00pm 12.0 SW 6 10 - - 0.0 - - - - - - -
27/12:30pm 11.4 W 4 7 - - 0.0 - - - - - - -
27/12:00pm 11.4 W 6 9 - - 0.0 - - - - - - -
27/11:30am 10.9 W 5 7 - - 0.0 - - - - - - -
27/11:00am 11.1 WNW 4 5 - - 0.0 - - - - - - -
27/10:30am 10.8 W 5 7 - - 0.0 - - - - - - -
27/10:00am 10.5 W 7 10 - - 0.0 - - - - - - -
27/09:30am 10.4 WNW 8 12 - - 0.0 - - - - - - -
27/09:00am 10.4 WNW 9 14 - - 0.0 - - - - - - -
27/08:30am 10.2 WNW 8 12 - - 0.0 - - - - - - -
27/08:00am 10.1 WNW 11 17 - - 0.0 - - - - - - -
27/07:30am 10.1 W 13 19 - - 0.0 - - - - - - -
27/07:00am 10.3 WNW 12 17 - - 0.0 - - - - - - -
27/06:30am 10.5 W 10 15 - - 0.0 - - - - - - -
27/06:00am 10.7 W 6 9 - - 0.0 - - - - - - -
27/05:30am 11.6 WSW 10 16 - - 0.0 - - - - - - -
27/05:00am 11.0 WNW 8 13 - - 0.0 - - - - - - -
27/04:30am 10.9 WNW 7 11 - - 0.0 - - - - - - -
27/04:00am 10.0 W 5 7 - - 0.0 - - - - - - -
27/03:30am 10.1 W 5 6 - - 0.0 - - - - - - -
27/03:00am 11.1 WNW 4 6 - - 0.0 - - - - - - -
27/02:30am 10.7 W 4 5 - - 0.0 - - - - - - -
27/02:00am 11.0 W 4 4 - - 0.0 - - - - - - -
27/01:30am 10.8 WNW 3 3 - - 0.0 - - - - - - -
27/01:00am 10.9 WNW 4 5 - - 0.0 - - - - - - -
27/12:30am 11.0 WNW 6 6 - - 0.0 - - - - - - -
27/12:00am 10.1 WNW 6 6 - - 0.0 - - - - - - -
 
Date/Time
EST
Temp
°C
Wind Pressure Rain since
9am
mm
Weather Cloud Vis
km
Sea
Height
m
Swell
Dir  Spd
kts
Gust
kts
hPa Trend Height
m
Period
s
Dir
26/11:30pm 10.9 WNW 5 6 - - 0.0 - - - - - - -
26/11:00pm 10.6 W 5 5 - - 0.0 - - - - - - -
26/10:30pm 10.8 W 5 6 - - 0.0 - - - - - - -
26/10:00pm 10.5 W 5 6 - - 0.0 - - - - - - -
26/09:30pm 10.6 WNW 5 6 - - 0.0 - - - - - - -
26/09:00pm 10.9 W 5 5 - - 0.0 - - - - - - -

Other Formats:

Comma delimited format used in spreadsheet applications
http://www.bom.gov.au/fwo/IDN60701/IDN60701.95749.axf

JavaScript Object Notation format (JSON) in row-major order
http://www.bom.gov.au/fwo/IDN60701/IDN60701.95749.json